To NAV CANADA Home Page Login to a new session Search on AWWS site Feedback and Comments Disclaimer Vers la page française équivalente Tips FAQ What's new on the site To the Forecasts and Observations / NOTAM section To "File a Flight Plan" website Publications and other links Update of the User's profile FIC Telephone Numbers My Weather Data Folder Route Weather Data Regional Weather Data Local Weather Data To the Forecasts and Observations / NOTAM section
Request Generated 04/24/2014 at 05:49:14 UTC . Weather information available at that time is displayed.

METAR/TAF

HALIFAX/STANFIELD INTL/NS    

METAR CYHZ 240500Z 10015G21KT 3SM -DZ BR OVC004 03/03 A2936 RMK SF8
SLP944=
METAR CYHZ 240400Z 10017G24KT 3SM -DZ BR OVC004 03/03 A2938 RMK SF8
SLP950=
METAR CYHZ 240300Z 11018G24KT 2SM -DZ BR OVC002 04/04 A2939 RMK SF8
SLP956=

TAF CYHZ 240539Z 2406/2506 10015G25KT 3SM -DZ -RA BR OVC006 TEMPO
2406/2411 1SM -RA BR OVC003
FM241100 07015G25KT 3SM -RA BR OVC006
FM241600 05015G25KT 6SM -RA BR OVC010
FM242100 02015G25KT 2SM -RAPL BR OVC008
FM250200 01017G27KT 11/2SM -SNRA OVC008
RMK NXT FCST BY 240900Z=
Your time UTC time
Weather data provided by Environment Canada and NAV CANADA